sensor_id;sensor_type;location;lat;lon;timestamp;P1;durP1;ratioP1;P2;durP2;ratioP2
28078;SDS011;15388;42.238;24.684;2023-02-03T00:01:32;7.22;;;3.70;;
28078;SDS011;15388;42.238;24.684;2023-02-03T00:03:58;4.85;;;3.33;;
28078;SDS011;15388;42.238;24.684;2023-02-03T00:06:23;3.70;;;3.20;;
28078;SDS011;15388;42.238;24.684;2023-02-03T00:08:48;7.20;;;3.72;;
28078;SDS011;15388;42.238;24.684;2023-02-03T00:11:18;4.80;;;3.58;;
28078;SDS011;15388;42.238;24.684;2023-02-03T00:13:43;7.13;;;4.18;;
28078;SDS011;15388;42.238;24.684;2023-02-03T00:16:08;3.53;;;3.17;;
28078;SDS011;15388;42.238;24.684;2023-02-03T00:18:34;6.13;;;3.78;;
28078;SDS011;15388;42.238;24.684;2023-02-03T00:20:59;4.57;;;3.65;;
28078;SDS011;15388;42.238;24.684;2023-02-03T00:23:24;5.05;;;3.95;;
28078;SDS011;15388;42.238;24.684;2023-02-03T00:25:50;8.93;;;4.47;;
28078;SDS011;15388;42.238;24.684;2023-02-03T00:28:15;4.80;;;3.33;;
28078;SDS011;15388;42.238;24.684;2023-02-03T00:30:40;5.63;;;4.18;;
28078;SDS011;15388;42.238;24.684;2023-02-03T00:33:06;5.88;;;4.47;;
28078;SDS011;15388;42.238;24.684;2023-02-03T00:35:31;6.78;;;3.55;;
28078;SDS011;15388;42.238;24.684;2023-02-03T00:37:56;4.88;;;3.42;;
28078;SDS011;15388;42.238;24.684;2023-02-03T00:40:23;5.78;;;3.17;;
28078;SDS011;15388;42.238;24.684;2023-02-03T00:42:49;6.88;;;2.58;;
28078;SDS011;15388;42.238;24.684;2023-02-03T00:45:14;5.57;;;3.53;;
28078;SDS011;15388;42.238;24.684;2023-02-03T00:47:40;5.78;;;2.95;;
28078;SDS011;15388;42.238;24.684;2023-02-03T00:50:05;5.97;;;3.75;;
28078;SDS011;15388;42.238;24.684;2023-02-03T00:52:32;5.82;;;3.55;;
28078;SDS011;15388;42.238;24.684;2023-02-03T00:54:57;7.53;;;3.23;;
28078;SDS011;15388;42.238;24.684;2023-02-03T00:57:23;7.53;;;3.90;;
28078;SDS011;15388;42.238;24.684;2023-02-03T00:59:48;5.70;;;3.90;;
28078;SDS011;15388;42.238;24.684;2023-02-03T01:02:13;6.93;;;4.28;;
28078;SDS011;15388;42.238;24.684;2023-02-03T01:04:38;5.40;;;3.20;;
28078;SDS011;15388;42.238;24.684;2023-02-03T01:07:04;5.60;;;3.53;;
28078;SDS011;15388;42.238;24.684;2023-02-03T01:09:32;6.72;;;3.17;;
28078;SDS011;15388;42.238;24.684;2023-02-03T01:11:57;4.28;;;3.10;;
28078;SDS011;15388;42.238;24.684;2023-02-03T01:14:22;5.18;;;3.58;;
28078;SDS011;15388;42.238;24.684;2023-02-03T01:16:47;5.95;;;4.03;;
28078;SDS011;15388;42.238;24.684;2023-02-03T01:19:13;7.50;;;4.30;;
28078;SDS011;15388;42.238;24.684;2023-02-03T01:21:38;8.23;;;4.00;;
28078;SDS011;15388;42.238;24.684;2023-02-03T01:24:04;5.45;;;3.47;;
28078;SDS011;15388;42.238;24.684;2023-02-03T01:26:29;10.73;;;3.72;;
28078;SDS011;15388;42.238;24.684;2023-02-03T01:28:57;6.30;;;4.00;;
28078;SDS011;15388;42.238;24.684;2023-02-03T01:31:24;6.38;;;3.90;;
28078;SDS011;15388;42.238;24.684;2023-02-03T01:33:50;11.48;;;6.72;;
28078;SDS011;15388;42.238;24.684;2023-02-03T01:36:17;4.35;;;3.33;;
28078;SDS011;15388;42.238;24.684;2023-02-03T01:38:43;6.05;;;4.05;;
28078;SDS011;15388;42.238;24.684;2023-02-03T01:41:10;8.50;;;4.75;;
28078;SDS011;15388;42.238;24.684;2023-02-03T01:43:42;32.15;;;10.63;;
28078;SDS011;15388;42.238;24.684;2023-02-03T01:46:22;30.98;;;16.27;;
28078;SDS011;15388;42.238;24.684;2023-02-03T01:48:48;8.07;;;5.40;;
28078;SDS011;15388;42.238;24.684;2023-02-03T01:51:14;5.95;;;4.38;;
28078;SDS011;15388;42.238;24.684;2023-02-03T01:53:39;11.75;;;8.00;;
28078;SDS011;15388;42.238;24.684;2023-02-03T01:56:05;11.73;;;8.30;;
28078;SDS011;15388;42.238;24.684;2023-02-03T01:58:31;8.35;;;4.18;;
28078;SDS011;15388;42.238;24.684;2023-02-03T02:00:58;8.40;;;5.05;;
28078;SDS011;15388;42.238;24.684;2023-02-03T02:03:24;8.25;;;5.43;;
28078;SDS011;15388;42.238;24.684;2023-02-03T02:06:12;10.48;;;5.55;;
28078;SDS011;15388;42.238;24.684;2023-02-03T02:08:36;5.47;;;4.10;;
28078;SDS011;15388;42.238;24.684;2023-02-03T02:11:02;8.45;;;4.32;;
28078;SDS011;15388;42.238;24.684;2023-02-03T02:13:29;7.47;;;4.07;;
28078;SDS011;15388;42.238;24.684;2023-02-03T02:18:33;8.15;;;4.25;;
28078;SDS011;15388;42.238;24.684;2023-02-03T02:21:22;6.88;;;3.58;;
28078;SDS011;15388;42.238;24.684;2023-02-03T02:23:56;5.30;;;3.60;;
28078;SDS011;15388;42.238;24.684;2023-02-03T02:29:25;6.57;;;4.63;;
28078;SDS011;15388;42.238;24.684;2023-02-03T02:32:14;8.60;;;4.63;;
28078;SDS011;15388;42.238;24.684;2023-02-03T02:34:49;6.90;;;4.80;;
28078;SDS011;15388;42.238;24.684;2023-02-03T02:39:48;4.70;;;3.65;;
28078;SDS011;15388;42.238;24.684;2023-02-03T02:44:50;10.48;;;4.75;;
28078;SDS011;15388;42.238;24.684;2023-02-03T02:47:18;7.50;;;4.28;;
28078;SDS011;15388;42.238;24.684;2023-02-03T02:49:53;5.57;;;4.00;;
28078;SDS011;15388;42.238;24.684;2023-02-03T02:54:49;5.97;;;3.73;;
28078;SDS011;15388;42.238;24.684;2023-02-03T02:57:15;7.32;;;3.50;;
28078;SDS011;15388;42.238;24.684;2023-02-03T02:59:41;5.95;;;3.58;;
28078;SDS011;15388;42.238;24.684;2023-02-03T03:02:07;6.63;;;3.63;;
28078;SDS011;15388;42.238;24.684;2023-02-03T03:07:00;6.22;;;2.97;;
28078;SDS011;15388;42.238;24.684;2023-02-03T03:11:53;3.93;;;3.03;;
28078;SDS011;15388;42.238;24.684;2023-02-03T03:14:21;4.13;;;3.08;;
28078;SDS011;15388;42.238;24.684;2023-02-03T03:16:53;4.28;;;3.20;;
28078;SDS011;15388;42.238;24.684;2023-02-03T03:19:21;4.88;;;2.85;;
28078;SDS011;15388;42.238;24.684;2023-02-03T03:21:49;7.43;;;3.05;;
28078;SDS011;15388;42.238;24.684;2023-02-03T03:24:17;5.40;;;3.00;;
28078;SDS011;15388;42.238;24.684;2023-02-03T03:29:17;4.38;;;3.28;;
28078;SDS011;15388;42.238;24.684;2023-02-03T03:31:44;4.75;;;3.15;;
28078;SDS011;15388;42.238;24.684;2023-02-03T03:34:10;3.67;;;2.97;;
28078;SDS011;15388;42.238;24.684;2023-02-03T03:36:46;3.40;;;2.63;;
28078;SDS011;15388;42.238;24.684;2023-02-03T03:39:14;4.55;;;3.17;;
28078;SDS011;15388;42.238;24.684;2023-02-03T03:44:08;3.72;;;2.45;;
28078;SDS011;15388;42.238;24.684;2023-02-03T03:46:55;4.30;;;2.80;;
28078;SDS011;15388;42.238;24.684;2023-02-03T03:49:23;3.45;;;2.67;;
28078;SDS011;15388;42.238;24.684;2023-02-03T03:51:50;4.13;;;2.28;;
28078;SDS011;15388;42.238;24.684;2023-02-03T03:54:18;3.75;;;2.65;;
28078;SDS011;15388;42.238;24.684;2023-02-03T03:59:09;3.17;;;2.47;;
28078;SDS011;15388;42.238;24.684;2023-02-03T04:01:37;5.00;;;2.88;;
28078;SDS011;15388;42.238;24.684;2023-02-03T04:04:05;4.18;;;3.10;;
28078;SDS011;15388;42.238;24.684;2023-02-03T04:06:30;5.20;;;3.15;;
28078;SDS011;15388;42.238;24.684;2023-02-03T04:08:56;6.55;;;3.65;;
28078;SDS011;15388;42.238;24.684;2023-02-03T04:11:21;6.25;;;4.18;;
28078;SDS011;15388;42.238;24.684;2023-02-03T04:14:05;14.23;;;7.85;;
28078;SDS011;15388;42.238;24.684;2023-02-03T04:16:30;10.77;;;7.78;;
28078;SDS011;15388;42.238;24.684;2023-02-03T04:18:55;8.38;;;5.40;;
28078;SDS011;15388;42.238;24.684;2023-02-03T04:21:21;6.70;;;5.32;;
28078;SDS011;15388;42.238;24.684;2023-02-03T04:23:46;6.60;;;4.28;;
28078;SDS011;15388;42.238;24.684;2023-02-03T04:26:11;5.00;;;3.63;;
28078;SDS011;15388;42.238;24.684;2023-02-03T04:28:36;5.65;;;3.00;;
28078;SDS011;15388;42.238;24.684;2023-02-03T04:31:02;9.27;;;4.85;;
28078;SDS011;15388;42.238;24.684;2023-02-03T04:33:27;7.68;;;4.63;;
28078;SDS011;15388;42.238;24.684;2023-02-03T04:35:52;7.05;;;4.30;;
28078;SDS011;15388;42.238;24.684;2023-02-03T04:38:17;12.27;;;6.85;;
28078;SDS011;15388;42.238;24.684;2023-02-03T04:40:43;5.57;;;4.03;;
28078;SDS011;15388;42.238;24.684;2023-02-03T04:43:09;7.93;;;5.20;;
28078;SDS011;15388;42.238;24.684;2023-02-03T04:45:35;4.65;;;3.30;;
28078;SDS011;15388;42.238;24.684;2023-02-03T04:48:00;4.60;;;2.85;;
28078;SDS011;15388;42.238;24.684;2023-02-03T04:50:25;7.38;;;3.42;;
28078;SDS011;15388;42.238;24.684;2023-02-03T04:52:51;5.57;;;3.85;;
28078;SDS011;15388;42.238;24.684;2023-02-03T04:55:16;5.82;;;3.83;;
28078;SDS011;15388;42.238;24.684;2023-02-03T04:57:41;5.22;;;3.50;;
28078;SDS011;15388;42.238;24.684;2023-02-03T05:00:07;4.47;;;3.63;;
28078;SDS011;15388;42.238;24.684;2023-02-03T05:02:32;7.43;;;2.80;;
28078;SDS011;15388;42.238;24.684;2023-02-03T05:04:57;5.50;;;2.83;;
28078;SDS011;15388;42.238;24.684;2023-02-03T05:07:22;5.47;;;3.22;;
28078;SDS011;15388;42.238;24.684;2023-02-03T05:09:48;3.45;;;2.65;;
28078;SDS011;15388;42.238;24.684;2023-02-03T05:12:13;5.25;;;2.67;;
28078;SDS011;15388;42.238;24.684;2023-02-03T05:14:38;4.57;;;3.58;;
28078;SDS011;15388;42.238;24.684;2023-02-03T05:17:03;5.22;;;3.78;;
28078;SDS011;15388;42.238;24.684;2023-02-03T05:19:29;3.33;;;2.75;;
28078;SDS011;15388;42.238;24.684;2023-02-03T05:21:54;4.35;;;2.92;;
28078;SDS011;15388;42.238;24.684;2023-02-03T05:24:19;3.75;;;2.55;;
28078;SDS011;15388;42.238;24.684;2023-02-03T05:26:44;5.93;;;4.20;;
28078;SDS011;15388;42.238;24.684;2023-02-03T05:29:10;5.30;;;3.50;;
28078;SDS011;15388;42.238;24.684;2023-02-03T05:31:36;5.85;;;3.55;;
28078;SDS011;15388;42.238;24.684;2023-02-03T05:34:01;6.28;;;4.15;;
28078;SDS011;15388;42.238;24.684;2023-02-03T05:36:26;7.88;;;4.88;;
28078;SDS011;15388;42.238;24.684;2023-02-03T05:38:51;5.05;;;3.22;;
28078;SDS011;15388;42.238;24.684;2023-02-03T05:41:17;5.50;;;3.28;;
28078;SDS011;15388;42.238;24.684;2023-02-03T05:44:01;5.68;;;4.05;;
28078;SDS011;15388;42.238;24.684;2023-02-03T05:46:26;8.48;;;3.97;;
28078;SDS011;15388;42.238;24.684;2023-02-03T05:48:51;4.85;;;3.17;;
28078;SDS011;15388;42.238;24.684;2023-02-03T05:51:16;5.13;;;3.80;;
28078;SDS011;15388;42.238;24.684;2023-02-03T05:53:42;5.13;;;3.40;;
28078;SDS011;15388;42.238;24.684;2023-02-03T05:56:08;6.38;;;3.60;;
28078;SDS011;15388;42.238;24.684;2023-02-03T05:58:33;5.90;;;3.38;;
28078;SDS011;15388;42.238;24.684;2023-02-03T06:00:59;5.63;;;3.70;;
28078;SDS011;15388;42.238;24.684;2023-02-03T06:03:24;7.07;;;3.63;;
28078;SDS011;15388;42.238;24.684;2023-02-03T06:05:49;3.83;;;3.30;;
28078;SDS011;15388;42.238;24.684;2023-02-03T06:08:14;3.90;;;3.00;;
28078;SDS011;15388;42.238;24.684;2023-02-03T06:10:40;4.25;;;2.90;;
28078;SDS011;15388;42.238;24.684;2023-02-03T06:13:12;6.85;;;4.20;;
28078;SDS011;15388;42.238;24.684;2023-02-03T06:15:37;4.32;;;2.92;;
28078;SDS011;15388;42.238;24.684;2023-02-03T06:18:03;6.55;;;3.58;;
28078;SDS011;15388;42.238;24.684;2023-02-03T06:20:28;3.78;;;2.65;;
28078;SDS011;15388;42.238;24.684;2023-02-03T06:22:54;6.53;;;2.75;;
28078;SDS011;15388;42.238;24.684;2023-02-03T06:25:19;8.13;;;3.95;;
28078;SDS011;15388;42.238;24.684;2023-02-03T06:27:44;4.07;;;2.63;;
28078;SDS011;15388;42.238;24.684;2023-02-03T06:30:10;3.72;;;2.97;;
28078;SDS011;15388;42.238;24.684;2023-02-03T06:32:35;5.38;;;3.50;;
28078;SDS011;15388;42.238;24.684;2023-02-03T06:35:01;6.70;;;3.47;;
28078;SDS011;15388;42.238;24.684;2023-02-03T06:37:26;4.20;;;2.17;;
28078;SDS011;15388;42.238;24.684;2023-02-03T06:39:51;3.42;;;3.03;;
28078;SDS011;15388;42.238;24.684;2023-02-03T06:42:16;2.80;;;2.33;;
28078;SDS011;15388;42.238;24.684;2023-02-03T06:44:42;4.85;;;3.00;;
28078;SDS011;15388;42.238;24.684;2023-02-03T06:47:08;8.52;;;3.60;;
28078;SDS011;15388;42.238;24.684;2023-02-03T06:49:33;6.07;;;2.90;;
28078;SDS011;15388;42.238;24.684;2023-02-03T06:51:58;3.92;;;2.95;;
28078;SDS011;15388;42.238;24.684;2023-02-03T06:54:24;5.05;;;3.15;;
28078;SDS011;15388;42.238;24.684;2023-02-03T06:56:49;5.43;;;3.08;;
28078;SDS011;15388;42.238;24.684;2023-02-03T06:59:14;5.30;;;2.55;;
28078;SDS011;15388;42.238;24.684;2023-02-03T07:01:39;3.38;;;2.63;;
28078;SDS011;15388;42.238;24.684;2023-02-03T07:04:05;7.85;;;3.47;;
28078;SDS011;15388;42.238;24.684;2023-02-03T07:06:30;3.25;;;2.95;;
28078;SDS011;15388;42.238;24.684;2023-02-03T07:11:23;3.10;;;2.72;;
28078;SDS011;15388;42.238;24.684;2023-02-03T07:13:48;3.03;;;2.05;;
28078;SDS011;15388;42.238;24.684;2023-02-03T07:16:13;4.28;;;3.25;;
28078;SDS011;15388;42.238;24.684;2023-02-03T07:18:39;3.22;;;2.90;;
28078;SDS011;15388;42.238;24.684;2023-02-03T07:21:04;6.10;;;2.53;;
28078;SDS011;15388;42.238;24.684;2023-02-03T07:23:30;6.13;;;3.42;;
28078;SDS011;15388;42.238;24.684;2023-02-03T07:25:58;2.80;;;2.42;;
28078;SDS011;15388;42.238;24.684;2023-02-03T07:28:23;4.72;;;3.20;;
28078;SDS011;15388;42.238;24.684;2023-02-03T07:30:48;3.42;;;2.75;;
28078;SDS011;15388;42.238;24.684;2023-02-03T07:33:13;1.90;;;1.77;;
28078;SDS011;15388;42.238;24.684;2023-02-03T07:35:38;4.22;;;3.83;;
28078;SDS011;15388;42.238;24.684;2023-02-03T07:38:04;5.13;;;4.10;;
28078;SDS011;15388;42.238;24.684;2023-02-03T07:40:29;6.45;;;4.40;;
28078;SDS011;15388;42.238;24.684;2023-02-03T07:42:54;4.43;;;2.67;;
28078;SDS011;15388;42.238;24.684;2023-02-03T07:45:20;6.45;;;4.03;;
28078;SDS011;15388;42.238;24.684;2023-02-03T07:47:46;2.92;;;2.38;;
28078;SDS011;15388;42.238;24.684;2023-02-03T07:50:11;3.47;;;2.72;;
28078;SDS011;15388;42.238;24.684;2023-02-03T07:52:36;4.38;;;2.97;;
28078;SDS011;15388;42.238;24.684;2023-02-03T07:55:02;4.40;;;2.78;;
28078;SDS011;15388;42.238;24.684;2023-02-03T07:57:27;8.98;;;3.10;;
28078;SDS011;15388;42.238;24.684;2023-02-03T07:59:53;3.78;;;3.03;;
28078;SDS011;15388;42.238;24.684;2023-02-03T08:02:18;4.25;;;2.78;;
28078;SDS011;15388;42.238;24.684;2023-02-03T08:04:43;5.03;;;3.13;;
28078;SDS011;15388;42.238;24.684;2023-02-03T08:07:08;3.65;;;3.28;;
28078;SDS011;15388;42.238;24.684;2023-02-03T08:09:33;3.65;;;2.22;;
28078;SDS011;15388;42.238;24.684;2023-02-03T08:11:59;3.08;;;2.60;;
28078;SDS011;15388;42.238;24.684;2023-02-03T08:14:24;3.42;;;3.05;;
28078;SDS011;15388;42.238;24.684;2023-02-03T08:16:49;3.08;;;2.78;;
28078;SDS011;15388;42.238;24.684;2023-02-03T08:19:14;4.63;;;3.42;;
28078;SDS011;15388;42.238;24.684;2023-02-03T08:21:40;3.45;;;2.58;;
28078;SDS011;15388;42.238;24.684;2023-02-03T08:24:05;3.47;;;3.05;;
28078;SDS011;15388;42.238;24.684;2023-02-03T08:26:30;5.50;;;3.53;;
28078;SDS011;15388;42.238;24.684;2023-02-03T08:28:55;3.10;;;2.80;;
28078;SDS011;15388;42.238;24.684;2023-02-03T08:31:21;2.60;;;2.13;;
28078;SDS011;15388;42.238;24.684;2023-02-03T08:33:46;3.80;;;2.95;;
28078;SDS011;15388;42.238;24.684;2023-02-03T08:36:11;4.90;;;2.72;;
28078;SDS011;15388;42.238;24.684;2023-02-03T08:38:37;3.97;;;2.38;;
28078;SDS011;15388;42.238;24.684;2023-02-03T08:41:09;3.20;;;2.17;;
28078;SDS011;15388;42.238;24.684;2023-02-03T08:43:35;4.53;;;3.00;;
28078;SDS011;15388;42.238;24.684;2023-02-03T08:46:04;6.43;;;3.28;;
28078;SDS011;15388;42.238;24.684;2023-02-03T08:48:29;3.38;;;2.55;;
28078;SDS011;15388;42.238;24.684;2023-02-03T08:50:54;4.07;;;2.70;;
28078;SDS011;15388;42.238;24.684;2023-02-03T08:53:19;3.58;;;2.80;;
28078;SDS011;15388;42.238;24.684;2023-02-03T08:55:45;2.70;;;2.35;;
28078;SDS011;15388;42.238;24.684;2023-02-03T08:58:10;3.45;;;2.75;;
28078;SDS011;15388;42.238;24.684;2023-02-03T09:00:35;6.55;;;3.70;;
28078;SDS011;15388;42.238;24.684;2023-02-03T09:03:01;3.67;;;3.15;;
28078;SDS011;15388;42.238;24.684;2023-02-03T09:05:28;4.28;;;2.78;;
28078;SDS011;15388;42.238;24.684;2023-02-03T09:07:54;3.00;;;2.20;;
28078;SDS011;15388;42.238;24.684;2023-02-03T09:10:19;2.63;;;2.20;;
28078;SDS011;15388;42.238;24.684;2023-02-03T09:12:44;6.68;;;2.83;;
28078;SDS011;15388;42.238;24.684;2023-02-03T09:15:09;4.80;;;3.08;;
28078;SDS011;15388;42.238;24.684;2023-02-03T09:17:35;4.50;;;3.03;;
28078;SDS011;15388;42.238;24.684;2023-02-03T09:20:00;5.30;;;3.63;;
28078;SDS011;15388;42.238;24.684;2023-02-03T09:22:25;2.78;;;2.35;;
28078;SDS011;15388;42.238;24.684;2023-02-03T09:24:50;6.53;;;3.58;;
28078;SDS011;15388;42.238;24.684;2023-02-03T09:27:16;7.22;;;4.07;;
28078;SDS011;15388;42.238;24.684;2023-02-03T09:29:41;14.82;;;5.95;;
28078;SDS011;15388;42.238;24.684;2023-02-03T09:32:06;12.45;;;5.93;;
28078;SDS011;15388;42.238;24.684;2023-02-03T09:34:34;11.27;;;6.03;;
28078;SDS011;15388;42.238;24.684;2023-02-03T09:37:00;5.38;;;3.05;;
28078;SDS011;15388;42.238;24.684;2023-02-03T09:39:25;6.65;;;2.75;;
28078;SDS011;15388;42.238;24.684;2023-02-03T09:47:03;2.72;;;2.33;;
28078;SDS011;15388;42.238;24.684;2023-02-03T09:49:36;4.60;;;2.55;;
28078;SDS011;15388;42.238;24.684;2023-02-03T09:52:04;2.67;;;2.13;;
28078;SDS011;15388;42.238;24.684;2023-02-03T09:54:43;3.00;;;1.70;;
28078;SDS011;15388;42.238;24.684;2023-02-03T09:57:12;3.47;;;2.10;;
28078;SDS011;15388;42.238;24.684;2023-02-03T09:59:38;6.30;;;3.97;;
28078;SDS011;15388;42.238;24.684;2023-02-03T10:04:51;5.13;;;3.05;;
28078;SDS011;15388;42.238;24.684;2023-02-03T10:08:05;7.38;;;4.30;;
28078;SDS011;15388;42.238;24.684;2023-02-03T10:10:07;4.97;;;2.80;;
28078;SDS011;15388;42.238;24.684;2023-02-03T10:17:42;7.30;;;3.75;;
28078;SDS011;15388;42.238;24.684;2023-02-03T10:20:13;5.53;;;2.40;;
28078;SDS011;15388;42.238;24.684;2023-02-03T10:22:59;3.90;;;2.97;;
28078;SDS011;15388;42.238;24.684;2023-02-03T10:27:52;9.13;;;4.78;;
28078;SDS011;15388;42.238;24.684;2023-02-03T10:30:23;2.13;;;1.90;;
28078;SDS011;15388;42.238;24.684;2023-02-03T10:32:56;7.28;;;2.63;;
28078;SDS011;15388;42.238;24.684;2023-02-03T10:35:27;2.78;;;1.60;;
28078;SDS011;15388;42.238;24.684;2023-02-03T10:37:57;4.80;;;1.83;;
28078;SDS011;15388;42.238;24.684;2023-02-03T10:40:23;5.65;;;2.50;;
28078;SDS011;15388;42.238;24.684;2023-02-03T10:42:49;2.38;;;1.92;;
28078;SDS011;15388;42.238;24.684;2023-02-03T10:45:35;3.17;;;2.53;;
28078;SDS011;15388;42.238;24.684;2023-02-03T10:48:01;3.92;;;3.00;;
28078;SDS011;15388;42.238;24.684;2023-02-03T10:50:27;4.38;;;2.70;;
28078;SDS011;15388;42.238;24.684;2023-02-03T10:53:17;3.42;;;2.00;;
28078;SDS011;15388;42.238;24.684;2023-02-03T10:55:43;5.22;;;2.45;;
28078;SDS011;15388;42.238;24.684;2023-02-03T10:58:12;3.40;;;2.60;;
28078;SDS011;15388;42.238;24.684;2023-02-03T11:00:39;6.47;;;3.30;;
28078;SDS011;15388;42.238;24.684;2023-02-03T11:03:05;4.35;;;3.08;;
28078;SDS011;15388;42.238;24.684;2023-02-03T11:05:31;3.92;;;2.22;;
28078;SDS011;15388;42.238;24.684;2023-02-03T11:07:57;3.03;;;2.20;;
28078;SDS011;15388;42.238;24.684;2023-02-03T11:10:37;2.90;;;1.83;;
28078;SDS011;15388;42.238;24.684;2023-02-03T11:13:25;5.00;;;2.42;;
28078;SDS011;15388;42.238;24.684;2023-02-03T11:15:50;6.80;;;2.70;;
28078;SDS011;15388;42.238;24.684;2023-02-03T11:21:10;3.22;;;1.85;;
28078;SDS011;15388;42.238;24.684;2023-02-03T11:23:36;3.03;;;1.73;;
28078;SDS011;15388;42.238;24.684;2023-02-03T11:26:11;3.03;;;2.60;;
28078;SDS011;15388;42.238;24.684;2023-02-03T11:28:40;3.30;;;2.60;;
28078;SDS011;15388;42.238;24.684;2023-02-03T11:31:08;3.67;;;2.33;;
28078;SDS011;15388;42.238;24.684;2023-02-03T11:33:36;4.05;;;2.75;;
28078;SDS011;15388;42.238;24.684;2023-02-03T11:36:02;3.35;;;2.10;;
28078;SDS011;15388;42.238;24.684;2023-02-03T11:38:33;2.65;;;2.00;;
28078;SDS011;15388;42.238;24.684;2023-02-03T11:41:02;1.38;;;1.15;;
28078;SDS011;15388;42.238;24.684;2023-02-03T11:43:28;4.05;;;2.05;;
28078;SDS011;15388;42.238;24.684;2023-02-03T11:45:54;5.70;;;2.05;;
28078;SDS011;15388;42.238;24.684;2023-02-03T12:16:39;2.40;;;1.80;;
28078;SDS011;15388;42.238;24.684;2023-02-03T12:33:55;7.75;;;3.90;;
28078;SDS011;15388;42.238;24.684;2023-02-03T12:36:25;6.60;;;2.97;;
28078;SDS011;15388;42.238;24.684;2023-02-03T12:38:53;8.77;;;4.32;;
28078;SDS011;15388;42.238;24.684;2023-02-03T12:41:25;7.68;;;3.75;;
28078;SDS011;15388;42.238;24.684;2023-02-03T12:43:52;3.78;;;2.83;;
28078;SDS011;15388;42.238;24.684;2023-02-03T12:46:26;8.95;;;4.78;;
28078;SDS011;15388;42.238;24.684;2023-02-03T12:49:04;11.68;;;5.63;;
28078;SDS011;15388;42.238;24.684;2023-02-03T12:51:56;14.00;;;5.47;;
28078;SDS011;15388;42.238;24.684;2023-02-03T12:56:54;11.50;;;6.00;;
28078;SDS011;15388;42.238;24.684;2023-02-03T12:59:24;18.98;;;8.50;;
28078;SDS011;15388;42.238;24.684;2023-02-03T13:01:53;18.38;;;8.98;;
28078;SDS011;15388;42.238;24.684;2023-02-03T13:04:23;12.85;;;6.45;;
28078;SDS011;15388;42.238;24.684;2023-02-03T13:16:50;14.50;;;4.50;;
28078;SDS011;15388;42.238;24.684;2023-02-03T13:19:17;3.55;;;2.90;;
28078;SDS011;15388;42.238;24.684;2023-02-03T13:21:46;3.58;;;2.15;;
28078;SDS011;15388;42.238;24.684;2023-02-03T13:26:58;2.80;;;2.00;;
28078;SDS011;15388;42.238;24.684;2023-02-03T13:29:30;1.73;;;1.63;;
28078;SDS011;15388;42.238;24.684;2023-02-03T13:44:31;3.40;;;2.35;;
28078;SDS011;15388;42.238;24.684;2023-02-03T13:46:57;4.50;;;1.60;;
28078;SDS011;15388;42.238;24.684;2023-02-03T13:49:24;2.72;;;2.13;;
28078;SDS011;15388;42.238;24.684;2023-02-03T13:51:51;4.00;;;2.17;;
28078;SDS011;15388;42.238;24.684;2023-02-03T13:54:35;8.98;;;4.40;;
28078;SDS011;15388;42.238;24.684;2023-02-03T13:57:02;14.32;;;5.88;;
28078;SDS011;15388;42.238;24.684;2023-02-03T13:59:29;8.55;;;3.35;;
28078;SDS011;15388;42.238;24.684;2023-02-03T14:10:04;8.73;;;4.93;;
28078;SDS011;15388;42.238;24.684;2023-02-03T14:12:32;12.43;;;5.30;;
28078;SDS011;15388;42.238;24.684;2023-02-03T14:14:59;6.28;;;4.78;;
28078;SDS011;15388;42.238;24.684;2023-02-03T14:20:00;3.90;;;3.33;;
28078;SDS011;15388;42.238;24.684;2023-02-03T14:22:26;2.63;;;1.75;;
28078;SDS011;15388;42.238;24.684;2023-02-03T14:24:52;5.93;;;2.70;;
28078;SDS011;15388;42.238;24.684;2023-02-03T14:27:19;4.43;;;2.90;;
28078;SDS011;15388;42.238;24.684;2023-02-03T14:29:45;5.28;;;3.15;;
28078;SDS011;15388;42.238;24.684;2023-02-03T14:32:33;5.55;;;2.28;;
28078;SDS011;15388;42.238;24.684;2023-02-03T14:35:15;6.18;;;2.53;;
28078;SDS011;15388;42.238;24.684;2023-02-03T14:37:41;4.70;;;2.95;;
28078;SDS011;15388;42.238;24.684;2023-02-03T14:40:29;11.82;;;4.38;;
28078;SDS011;15388;42.238;24.684;2023-02-03T14:48:12;10.40;;;3.05;;
28078;SDS011;15388;42.238;24.684;2023-02-03T14:56:21;2.05;;;1.67;;
28078;SDS011;15388;42.238;24.684;2023-02-03T14:58:43;3.38;;;2.35;;
28078;SDS011;15388;42.238;24.684;2023-02-03T15:03:34;5.30;;;3.25;;
28078;SDS011;15388;42.238;24.684;2023-02-03T15:06:03;8.32;;;2.95;;
28078;SDS011;15388;42.238;24.684;2023-02-03T15:11:21;3.22;;;2.00;;
28078;SDS011;15388;42.238;24.684;2023-02-03T15:13:47;5.93;;;2.40;;
28078;SDS011;15388;42.238;24.684;2023-02-03T15:16:13;3.75;;;2.47;;
28078;SDS011;15388;42.238;24.684;2023-02-03T15:21:05;12.45;;;4.95;;
28078;SDS011;15388;42.238;24.684;2023-02-03T15:23:38;23.00;;;9.80;;
28078;SDS011;15388;42.238;24.684;2023-02-03T15:26:11;25.45;;;4.40;;
28078;SDS011;15388;42.238;24.684;2023-02-03T15:28:37;6.10;;;3.55;;
28078;SDS011;15388;42.238;24.684;2023-02-03T15:33:34;18.45;;;5.28;;
28078;SDS011;15388;42.238;24.684;2023-02-03T15:36:02;19.67;;;4.65;;
28078;SDS011;15388;42.238;24.684;2023-02-03T15:38:34;5.70;;;3.05;;
28078;SDS011;15388;42.238;24.684;2023-02-03T15:41:01;6.57;;;4.65;;
28078;SDS011;15388;42.238;24.684;2023-02-03T15:43:31;4.97;;;3.43;;
28078;SDS011;15388;42.238;24.684;2023-02-03T15:50:58;5.38;;;3.70;;
28078;SDS011;15388;42.238;24.684;2023-02-03T15:53:29;4.60;;;2.35;;
28078;SDS011;15388;42.238;24.684;2023-02-03T15:55:57;5.07;;;2.97;;
28078;SDS011;15388;42.238;24.684;2023-02-03T15:58:28;6.45;;;3.35;;
28078;SDS011;15388;42.238;24.684;2023-02-03T16:00:58;3.50;;;3.20;;
28078;SDS011;15388;42.238;24.684;2023-02-03T16:04:07;5.28;;;3.75;;
28078;SDS011;15388;42.238;24.684;2023-02-03T16:08:42;10.00;;;5.10;;
28078;SDS011;15388;42.238;24.684;2023-02-03T16:14:06;5.65;;;3.88;;
28078;SDS011;15388;42.238;24.684;2023-02-03T16:19:04;15.90;;;10.05;;
28078;SDS011;15388;42.238;24.684;2023-02-03T16:21:34;13.80;;;5.22;;
28078;SDS011;15388;42.238;24.684;2023-02-03T16:24:01;9.45;;;5.00;;
28078;SDS011;15388;42.238;24.684;2023-02-03T16:26:26;6.88;;;4.35;;
28078;SDS011;15388;42.238;24.684;2023-02-03T16:28:56;9.40;;;4.40;;
28078;SDS011;15388;42.238;24.684;2023-02-03T16:31:45;5.57;;;3.97;;
28078;SDS011;15388;42.238;24.684;2023-02-03T16:34:29;7.07;;;4.57;;
28078;SDS011;15388;42.238;24.684;2023-02-03T16:37:19;8.25;;;4.32;;
28078;SDS011;15388;42.238;24.684;2023-02-03T16:40:05;4.45;;;3.33;;
28078;SDS011;15388;42.238;24.684;2023-02-03T16:42:49;7.68;;;4.65;;
28078;SDS011;15388;42.238;24.684;2023-02-03T16:45:32;7.22;;;4.13;;
28078;SDS011;15388;42.238;24.684;2023-02-03T16:48:16;5.55;;;3.75;;
28078;SDS011;15388;42.238;24.684;2023-02-03T16:51:02;7.85;;;4.25;;
28078;SDS011;15388;42.238;24.684;2023-02-03T16:53:30;9.20;;;6.50;;
28078;SDS011;15388;42.238;24.684;2023-02-03T16:55:56;7.03;;;5.22;;
28078;SDS011;15388;42.238;24.684;2023-02-03T16:58:21;8.40;;;6.40;;
28078;SDS011;15388;42.238;24.684;2023-02-03T17:00:48;10.95;;;7.53;;
28078;SDS011;15388;42.238;24.684;2023-02-03T17:03:15;17.50;;;9.80;;
28078;SDS011;15388;42.238;24.684;2023-02-03T17:05:41;14.45;;;7.85;;
28078;SDS011;15388;42.238;24.684;2023-02-03T17:08:07;12.82;;;6.57;;
28078;SDS011;15388;42.238;24.684;2023-02-03T17:10:33;10.35;;;6.07;;
28078;SDS011;15388;42.238;24.684;2023-02-03T17:12:59;10.60;;;6.18;;
28078;SDS011;15388;42.238;24.684;2023-02-03T17:15:24;21.17;;;8.52;;
28078;SDS011;15388;42.238;24.684;2023-02-03T17:17:50;19.88;;;8.05;;
28078;SDS011;15388;42.238;24.684;2023-02-03T17:20:15;8.07;;;5.25;;